createdAt,value
2023-09-12T00:00:41.792Z,66.99
2023-09-12T00:05:42.107Z,66.36
2023-09-12T00:10:42.197Z,66.78
2023-09-12T00:15:40.530Z,68.52
2023-09-12T00:20:38.782Z,64.00
2023-09-12T00:25:38.079Z,64.95
2023-09-12T00:30:37.341Z,65.59
2023-09-12T00:35:37.637Z,64.86
2023-09-12T00:40:35.913Z,64.75
2023-09-12T00:45:35.209Z,64.55
2023-09-12T00:50:35.322Z,68.19
2023-09-12T00:55:33.593Z,68.29
2023-09-12T01:00:34.840Z,68.76
2023-09-12T01:05:32.072Z,63.03
2023-09-12T01:10:32.348Z,59.62
2023-09-12T01:15:32.664Z,57.10
2023-09-12T01:20:32.025Z,56.77
2023-09-12T01:25:30.091Z,57.60
2023-09-12T01:30:29.407Z,57.20
2023-09-12T01:35:27.679Z,56.52
2023-09-12T01:40:27.980Z,56.02
2023-09-12T01:45:28.357Z,55.53
2023-09-12T01:50:26.439Z,55.00
2023-09-12T01:55:26.715Z,54.50
2023-09-12T02:00:23.992Z,54.83
2023-09-12T02:05:25.306Z,55.73
2023-09-12T02:10:22.536Z,54.50
2023-09-12T02:15:21.854Z,55.00
2023-09-12T02:20:23.118Z,53.88
2023-09-12T02:25:20.387Z,55.98
2023-09-12T02:30:20.665Z,58.36
2023-09-12T02:35:20.903Z,62.59
2023-09-12T02:40:18.161Z,62.52
2023-09-12T02:45:18.434Z,62.72
2023-09-12T02:50:18.713Z,62.75
2023-09-12T02:55:15.952Z,63.95
2023-09-12T03:00:16.252Z,62.82
2023-09-12T03:05:18.600Z,59.35
2023-09-12T03:10:13.624Z,59.88
2023-09-12T03:15:12.900Z,57.90
2023-09-12T03:20:12.142Z,56.87
2023-09-12T03:25:12.407Z,57.63
2023-09-12T03:30:12.718Z,58.72
2023-09-12T03:35:11.951Z,57.73
2023-09-12T03:40:10.193Z,55.48
2023-09-12T03:45:08.475Z,54.73
2023-09-12T03:50:07.721Z,55.35
2023-09-12T03:55:06.981Z,55.16
2023-09-12T04:00:08.252Z,57.23
2023-09-12T04:05:07.481Z,55.88
2023-09-12T04:10:04.734Z,56.90
2023-09-12T04:15:04.030Z,55.98
2023-09-12T04:20:03.139Z,54.53
2023-09-12T04:25:02.379Z,55.05
2023-09-12T04:30:01.603Z,55.68
2023-09-12T04:35:02.879Z,55.58
2023-09-12T04:40:00.222Z,54.33
2023-09-12T04:44:59.283Z,53.61
2023-09-12T04:49:59.540Z,54.66
2023-09-12T04:54:58.793Z,54.26
2023-09-12T04:59:58.042Z,53.11
2023-09-12T05:04:56.374Z,53.21
2023-09-12T05:09:56.408Z,54.13
2023-09-12T07:43:51.472Z,52.44
2023-09-12T07:48:49.832Z,52.14
2023-09-12T07:53:49.058Z,51.95
2023-09-12T07:58:49.290Z,51.95
2023-09-12T08:03:51.672Z,51.84
2023-09-12T08:08:46.784Z,51.82
2023-09-12T08:13:46.126Z,51.82
2023-09-12T08:18:45.299Z,51.92
2023-09-12T08:23:45.537Z,51.82
2023-09-12T08:28:44.763Z,51.92
2023-09-12T08:33:43.937Z,52.02
2023-09-12T08:38:41.860Z,52.31
2023-09-12T08:43:41.438Z,52.31
2023-09-12T08:48:40.459Z,52.61
2023-09-12T08:53:39.560Z,52.81
2023-09-12T08:58:37.826Z,52.89
2023-09-12T09:03:38.178Z,52.98
2023-09-12T09:08:37.260Z,52.98
2023-09-12T09:13:36.524Z,52.89
2023-09-12T09:18:36.871Z,52.89
2023-09-12T09:23:35.015Z,52.98
2023-09-12T09:28:35.281Z,52.98
2023-09-12T09:33:33.592Z,52.89
2023-09-12T09:38:34.845Z,52.89
2023-09-12T09:43:32.104Z,53.08
2023-09-12T09:48:31.388Z,53.06
2023-09-12T09:53:30.628Z,52.96
2023-09-12T09:58:30.911Z,53.06
2023-09-12T10:03:30.256Z,53.06
2023-09-12T10:08:29.299Z,53.16
2023-09-12T10:13:27.572Z,53.16
2023-09-12T10:18:30.222Z,53.16
2023-09-12T10:23:26.016Z,53.16
2023-09-12T10:28:25.256Z,52.94
2023-09-12T10:33:25.556Z,53.03
2023-09-12T10:38:23.799Z,53.03
2023-09-12T10:43:23.092Z,53.03
2023-09-12T10:48:22.402Z,53.13
2023-09-12T10:53:21.629Z,53.92
2023-09-12T10:58:21.928Z,53.83
2023-09-12T11:03:20.333Z,53.63
2023-09-12T11:08:19.481Z,53.53
2023-09-12T11:13:19.659Z,53.33
2023-09-12T11:18:18.976Z,53.31
2023-09-12T11:23:17.092Z,53.50
2023-09-12T11:28:17.318Z,53.20
2023-09-12T11:33:17.745Z,53.11
2023-09-12T11:38:14.780Z,52.91
2023-09-12T11:43:14.087Z,52.91
2023-09-12T11:48:13.368Z,52.88
2023-09-12T11:53:14.644Z,52.98
2023-09-12T11:58:11.924Z,52.98
2023-09-12T12:03:11.227Z,52.88
2023-09-12T12:08:27.877Z,52.59
2023-09-12T12:13:10.888Z,52.59
2023-09-12T12:18:12.201Z,52.69
2023-09-12T12:23:10.463Z,52.59
2023-09-12T12:28:08.716Z,52.78
2023-09-12T12:33:23.161Z,52.88
2023-09-12T12:38:08.383Z,52.88
2023-09-12T12:43:06.417Z,53.08
2023-09-12T12:48:04.718Z,53.06
2023-09-12T12:53:06.000Z,53.16
2023-09-12T12:58:04.300Z,53.16
2023-09-12T13:03:03.670Z,53.06
2023-09-12T13:08:01.759Z,52.96
2023-09-12T13:13:02.101Z,52.86
2023-09-12T13:18:00.215Z,52.96
2023-09-12T13:22:59.500Z,52.66
2023-09-12T13:27:58.787Z,52.66
2023-09-12T13:32:58.062Z,52.86
2023-09-12T13:37:57.350Z,53.06
2023-09-12T13:42:57.631Z,53.16
2023-09-12T13:47:57.972Z,53.16
2023-09-12T13:52:55.999Z,53.25
2023-09-12T13:57:54.407Z,53.35
2023-09-12T14:02:53.969Z,53.35
2023-09-12T14:07:54.311Z,53.35
2023-09-12T14:12:52.954Z,53.45
2023-09-12T14:17:56.849Z,53.55
2023-09-12T14:22:51.128Z,53.75
2023-09-12T14:27:50.281Z,54.14
2023-09-12T14:32:50.605Z,53.85
2023-09-12T14:37:47.566Z,54.35
2023-09-12T14:42:48.918Z,54.24
2023-09-12T14:47:47.160Z,53.75
2023-09-12T14:52:47.228Z,53.67
2023-09-12T14:57:45.536Z,53.78
2023-09-12T15:02:45.832Z,52.98
2023-09-12T15:07:44.065Z,52.98
2023-09-12T15:12:45.301Z,52.98
2023-09-12T15:17:42.313Z,53.38
2023-09-12T15:22:41.706Z,53.78
2023-09-12T15:27:40.781Z,53.88
2023-09-12T15:32:40.289Z,54.07
2023-09-12T15:37:40.330Z,54.57
2023-09-12T15:42:38.793Z,53.97
2023-09-12T15:47:38.127Z,55.09
2023-09-12T15:52:38.087Z,54.89
2023-09-12T15:57:37.156Z,54.30
2023-09-12T16:02:36.364Z,54.67
2023-09-12T16:07:34.792Z,54.37
2023-09-12T16:12:35.124Z,54.67
2023-09-12T16:17:32.243Z,54.47
2023-09-12T16:22:32.531Z,55.19
2023-09-12T16:27:31.842Z,54.86
2023-09-12T16:32:32.970Z,54.57
2023-09-12T16:37:30.165Z,54.67
2023-09-12T16:42:29.387Z,54.69
2023-09-12T16:47:28.717Z,54.79
2023-09-12T16:52:27.800Z,61.17
2023-09-12T16:57:28.075Z,64.22
2023-09-12T17:02:27.449Z,65.87
2023-09-12T17:07:25.625Z,66.31
2023-09-12T17:12:24.957Z,68.19
2023-09-12T17:17:25.306Z,67.83
2023-09-12T17:22:24.268Z,70.42
2023-09-12T17:27:23.574Z,72.29
2023-09-12T17:32:21.795Z,74.76
2023-09-12T17:37:20.936Z,74.02
2023-09-12T17:42:20.333Z,73.89
2023-09-12T17:47:20.582Z,73.63
2023-09-12T17:52:18.841Z,72.09
2023-09-12T17:57:19.017Z,72.42
2023-09-12T18:02:18.408Z,72.66
2023-09-12T18:07:17.440Z,71.36
2023-09-12T18:12:15.997Z,71.42
2023-09-12T18:17:16.059Z,68.33
2023-09-12T18:22:14.338Z,68.99
2023-09-12T18:27:16.599Z,68.96
2023-09-12T18:32:12.848Z,66.50
2023-09-12T18:37:16.652Z,64.54
2023-09-12T18:42:15.166Z,60.35
2023-09-12T18:47:10.708Z,59.75
2023-09-12T18:52:13.180Z,58.33
2023-09-12T18:57:10.036Z,57.93
2023-09-12T19:02:10.168Z,57.34
2023-09-12T19:07:10.710Z,57.56
2023-09-12T19:12:08.866Z,56.74
2023-09-12T19:17:06.037Z,58.87
2023-09-12T19:22:05.219Z,65.60
2023-09-12T19:27:05.345Z,68.09
2023-09-12T19:32:03.576Z,65.04
2023-09-12T19:37:02.748Z,58.64
2023-09-12T19:42:02.897Z,56.49
2023-09-12T19:47:08.420Z,58.64
2023-09-12T19:52:00.519Z,58.84
2023-09-12T19:57:01.440Z,56.82
2023-09-12T20:01:58.909Z,57.39
2023-09-12T20:06:58.195Z,56.77
2023-09-12T20:11:57.286Z,57.59
2023-09-12T20:16:59.375Z,57.89
2023-09-12T20:21:55.990Z,60.33
2023-09-12T20:26:58.210Z,58.69
2023-09-12T20:31:54.272Z,58.58
2023-09-12T20:36:53.439Z,60.33
2023-09-12T20:41:54.769Z,59.11
2023-09-12T20:46:52.060Z,59.04
2023-09-12T20:51:51.260Z,61.11
2023-09-12T20:56:51.300Z,58.09
2023-09-12T21:01:49.230Z,59.34
2023-09-12T21:06:48.561Z,59.66
2023-09-12T21:11:47.603Z,62.45
2023-09-12T21:16:46.933Z,57.99
2023-09-12T21:21:48.071Z,57.99
2023-09-12T21:26:48.418Z,57.09
2023-09-12T21:31:44.569Z,57.29
2023-09-12T21:36:43.864Z,56.00
2023-09-12T21:41:43.872Z,54.78
2023-09-12T21:46:42.159Z,54.90
2023-09-12T21:51:41.466Z,54.58
2023-09-12T21:56:40.708Z,55.10
2023-09-12T22:01:41.039Z,54.58
2023-09-12T22:06:43.425Z,54.90
2023-09-12T22:11:38.437Z,56.10
2023-09-12T22:16:38.715Z,55.15
2023-09-12T22:21:39.036Z,55.25
2023-09-12T22:26:36.249Z,55.12
2023-09-12T22:31:35.530Z,55.82
2023-09-12T22:36:36.816Z,55.52
2023-09-12T22:41:36.028Z,55.52
2023-09-12T22:46:33.301Z,56.12
2023-09-12T22:51:33.561Z,55.91
2023-09-12T22:56:31.801Z,55.82
2023-09-12T23:01:31.122Z,55.72
2023-09-12T23:06:30.340Z,56.12
2023-09-12T23:11:30.600Z,56.54
2023-09-12T23:16:28.897Z,56.57
2023-09-12T23:21:30.019Z,56.96
2023-09-12T23:26:27.252Z,57.36
2023-09-12T23:31:26.564Z,57.89
2023-09-12T23:36:26.645Z,58.48
2023-09-12T23:41:25.875Z,58.39
2023-09-12T23:46:24.187Z,58.18
2023-09-12T23:51:24.284Z,58.58
2023-09-12T23:56:22.519Z,59.11
